createdAt,value
2022-11-03T00:01:38.494Z,100997.59
2022-11-03T00:04:07.479Z,100970.78
2022-11-03T00:06:37.111Z,101002.66
2022-11-03T00:09:07.317Z,100955.47
2022-11-03T00:11:36.031Z,100973.16
2022-11-03T00:14:05.135Z,100989.06
2022-11-03T00:16:33.572Z,100972.97
2022-11-03T00:19:01.510Z,100990.63
2022-11-03T00:21:29.824Z,100985.34
2022-11-03T00:23:59.276Z,100985.03
2022-11-03T00:26:28.665Z,100984.09
2022-11-03T00:28:58.078Z,100992.63
2022-11-03T00:31:28.072Z,100980.06
2022-11-03T00:33:56.735Z,100994.13
2022-11-03T00:36:26.570Z,100962.78
2022-11-03T00:38:55.110Z,100987.00
2022-11-03T00:41:25.146Z,100993.06
2022-11-03T00:43:54.018Z,100995.56
2022-11-03T00:46:23.710Z,101007.56
2022-11-03T00:48:52.076Z,100994.97
2022-11-03T00:51:21.841Z,101008.72
2022-11-03T00:53:52.366Z,101016.09
2022-11-03T00:56:22.236Z,101011.59
2022-11-03T00:58:52.818Z,101021.91
2022-11-03T01:01:22.777Z,101026.19
2022-11-03T01:04:10.936Z,101023.63
2022-11-03T01:06:54.423Z,101026.19
2022-11-03T01:09:24.032Z,101020.06
2022-11-03T01:11:57.702Z,101010.13
2022-11-03T01:14:30.639Z,101023.44
2022-11-03T01:16:59.084Z,101026.06
2022-11-03T01:19:26.910Z,101029.50
2022-11-03T01:21:54.988Z,101018.66
2022-11-03T01:24:23.248Z,101025.81
2022-11-03T01:26:51.372Z,101035.28
2022-11-03T01:29:19.801Z,101035.22
2022-11-03T01:31:49.113Z,101038.59
2022-11-03T01:34:18.974Z,101041.09
2022-11-03T01:36:47.431Z,101042.75
2022-11-03T01:39:17.082Z,101043.50
2022-11-03T01:41:46.605Z,101002.34
2022-11-03T01:44:33.559Z,101055.59
2022-11-03T01:47:08.751Z,101049.19
2022-11-03T01:49:41.929Z,101041.13
2022-11-03T01:52:14.991Z,101064.81
2022-11-03T01:54:48.960Z,101063.03
2022-11-03T01:57:21.265Z,101043.34
2022-11-03T01:59:55.657Z,101015.63
2022-11-03T02:02:25.026Z,101064.53
2022-11-03T02:04:58.989Z,101062.75
2022-11-03T02:07:34.241Z,101064.41
2022-11-03T02:10:03.237Z,101084.34
2022-11-03T02:12:34.766Z,101066.88
2022-11-03T02:15:06.097Z,101033.75
2022-11-03T02:17:40.359Z,101040.69
2022-11-03T02:20:13.605Z,101067.38
2022-11-03T02:23:12.803Z,101066.41
2022-11-03T02:25:52.250Z,101071.56
2022-11-03T02:28:23.497Z,101075.84
2022-11-03T02:31:00.588Z,100977.59
2022-11-03T02:33:38.765Z,101049.00
2022-11-03T02:36:14.566Z,101047.84
2022-11-03T02:38:51.829Z,101054.09
2022-11-03T02:41:23.386Z,101039.47
2022-11-03T02:43:57.907Z,101074.25
2022-11-03T02:46:28.002Z,101069.66
2022-11-03T02:48:57.742Z,101048.31
2022-11-03T02:51:25.986Z,101071.31
2022-11-03T02:54:03.949Z,101008.88
2022-11-03T02:56:37.196Z,101071.38
2022-11-03T02:59:10.969Z,101073.03
2022-11-03T03:01:48.284Z,101073.78
2022-11-03T03:04:21.447Z,101071.94
2022-11-03T03:06:55.224Z,101068.28
2022-11-03T03:09:27.259Z,101059.16
2022-11-03T03:12:00.197Z,101082.97
2022-11-03T03:14:36.079Z,101088.13
2022-11-03T03:17:08.964Z,101071.09
2022-11-03T03:19:49.145Z,101088.94
2022-11-03T03:22:25.814Z,101095.88
2022-11-03T03:25:00.939Z,101101.91
2022-11-03T03:27:34.542Z,101105.28
2022-11-03T03:30:10.393Z,101107.88
2022-11-03T03:32:41.576Z,101090.25
2022-11-03T03:35:17.249Z,101108.22
2022-11-03T03:37:52.088Z,101096.69
2022-11-03T03:40:31.503Z,101110.44
2022-11-03T03:43:02.686Z,101104.53
2022-11-03T03:45:32.616Z,101110.84
2022-11-03T03:48:01.438Z,101104.94
2022-11-03T03:50:36.077Z,101105.97
2022-11-03T03:53:06.484Z,101090.06
2022-11-03T03:55:38.912Z,101107.06
2022-11-03T03:58:10.904Z,101107.91
2022-11-03T04:00:40.300Z,101113.19
2022-11-03T04:03:14.231Z,101107.84
2022-11-03T04:05:42.180Z,101117.25
2022-11-03T04:08:10.116Z,101085.66
2022-11-03T04:10:37.962Z,101119.50
2022-11-03T04:13:24.478Z,101118.53
2022-11-03T04:16:11.224Z,101114.81
2022-11-03T04:18:53.132Z,101086.94
2022-11-03T04:21:38.561Z,101115.50
2022-11-03T04:24:07.391Z,101125.94
2022-11-03T04:26:35.307Z,101117.31
2022-11-03T04:29:03.336Z,101119.91
2022-11-03T04:31:36.495Z,101109.34
2022-11-03T04:34:06.153Z,101120.03
2022-11-03T04:36:34.069Z,101101.09
2022-11-03T04:39:02.215Z,101111.88
2022-11-03T04:41:34.169Z,101126.00
2022-11-03T04:44:02.401Z,101124.22
2022-11-03T04:46:32.344Z,101110.84
2022-11-03T04:49:03.019Z,101125.88
2022-11-03T04:51:34.312Z,101123.94
2022-11-03T04:54:05.087Z,101132.44
2022-11-03T04:56:33.802Z,101117.06
2022-11-03T04:59:01.623Z,101126.75
2022-11-03T05:01:31.069Z,101131.97
2022-11-03T05:04:00.639Z,101138.13
2022-11-03T05:06:30.858Z,101134.56
2022-11-03T05:09:01.811Z,101138.81
2022-11-03T05:11:33.572Z,101142.09
2022-11-03T05:14:03.559Z,101144.56
2022-11-03T05:16:32.820Z,101134.75
2022-11-03T05:19:02.253Z,101134.59
2022-11-03T05:21:30.490Z,101140.69
2022-11-03T05:24:02.469Z,101135.19
2022-11-03T05:26:35.237Z,101107.22
2022-11-03T05:29:04.823Z,101135.03
2022-11-03T05:31:36.386Z,101142.72
2022-11-03T05:34:22.097Z,101154.72
2022-11-03T05:36:50.066Z,101155.38
2022-11-03T05:39:29.708Z,101154.50
2022-11-03T05:42:00.039Z,101155.31
2022-11-03T05:44:33.168Z,101123.00
2022-11-03T05:47:05.953Z,101155.81
2022-11-03T05:49:37.539Z,101154.56
2022-11-03T05:52:07.048Z,101175.69
2022-11-03T05:54:35.930Z,101173.75
2022-11-03T05:57:06.144Z,101183.22
2022-11-03T05:59:34.214Z,101167.06
2022-11-03T06:02:02.433Z,101176.06
2022-11-03T06:04:33.608Z,101168.53
2022-11-03T06:07:05.651Z,101170.47
2022-11-03T06:09:35.095Z,101177.63
2022-11-03T06:12:06.673Z,101184.03
2022-11-03T06:14:37.576Z,101190.06
2022-11-03T06:17:07.670Z,101191.69
2022-11-03T06:19:39.281Z,101188.13
2022-11-03T06:22:15.592Z,101192.34
2022-11-03T06:24:43.885Z,101195.94
2022-11-03T06:27:15.479Z,101196.75
2022-11-03T06:29:47.160Z,101195.84
2022-11-03T06:32:15.064Z,101206.28
2022-11-03T06:34:44.945Z,101186.53
2022-11-03T06:37:20.921Z,101208.88
2022-11-03T06:39:49.854Z,101211.47
2022-11-03T06:42:21.728Z,101179.88
2022-11-03T06:44:51.363Z,101206.94
2022-11-03T06:47:24.472Z,101168.50
2022-11-03T06:49:55.428Z,101216.63
2022-11-03T06:52:30.884Z,101208.00
2022-11-03T06:55:17.726Z,101218.41
2022-11-03T06:57:48.274Z,101221.81
2022-11-03T07:00:34.190Z,101230.53
2022-11-03T07:03:09.082Z,101227.19
2022-11-03T07:05:38.187Z,101162.31
2022-11-03T07:08:18.506Z,101219.59
2022-11-03T07:10:46.576Z,101229.44
2022-11-03T07:13:16.767Z,101196.09
2022-11-03T07:15:45.815Z,101224.75
2022-11-03T07:18:20.950Z,101234.69
2022-11-03T07:20:49.290Z,101179.78
2022-11-03T07:23:20.995Z,101227.97
2022-11-03T07:25:53.466Z,101198.56
2022-11-03T07:28:23.109Z,101242.41
2022-11-03T07:30:51.162Z,101251.91
2022-11-03T07:33:23.721Z,101257.84
2022-11-03T07:36:14.235Z,101255.53
2022-11-03T07:38:43.566Z,101257.19
2022-11-03T07:41:18.379Z,101255.00
2022-11-03T07:43:54.736Z,101229.00
2022-11-03T07:46:24.530Z,101252.31
2022-11-03T07:48:56.768Z,101257.81
2022-11-03T07:51:26.905Z,101254.63
2022-11-03T07:54:00.059Z,101244.88
2022-11-03T07:56:33.298Z,101250.25
2022-11-03T07:59:05.868Z,101235.34
2022-11-03T08:01:37.740Z,101253.75
2022-11-03T08:04:07.906Z,101244.16
2022-11-03T08:06:35.847Z,101240.84
2022-11-03T08:09:06.057Z,101241.34
2022-11-03T08:11:34.034Z,101255.31
2022-11-03T08:14:01.870Z,101250.88
2022-11-03T08:16:29.717Z,101250.03
2022-11-03T08:18:57.637Z,101243.44
2022-11-03T08:21:25.585Z,101254.19
2022-11-03T08:23:53.447Z,101265.66
2022-11-03T08:26:23.086Z,101233.78
2022-11-03T08:28:51.361Z,101237.19
2022-11-03T08:31:19.269Z,101246.94
2022-11-03T08:33:47.335Z,101255.59
2022-11-03T08:36:15.195Z,101257.06
2022-11-03T08:38:43.148Z,101248.47
2022-11-03T08:41:11.098Z,101241.75
2022-11-03T08:43:40.369Z,101247.56
2022-11-03T08:46:16.725Z,101250.09
2022-11-03T08:48:46.536Z,101246.41
2022-11-03T08:51:15.487Z,101252.25
2022-11-03T08:53:43.723Z,101253.69
2022-11-03T08:56:13.456Z,101258.16
2022-11-03T08:58:45.029Z,101254.09
2022-11-03T09:01:13.334Z,101216.22
2022-11-03T09:03:42.107Z,101155.81
2022-11-03T09:06:10.178Z,101234.88
2022-11-03T09:11:26.440Z,101251.84
2022-11-03T09:13:57.787Z,101253.34
2022-11-03T09:16:26.432Z,101260.78
2022-11-03T09:18:54.320Z,101269.25
2022-11-03T09:21:22.393Z,101257.50
2022-11-03T09:23:50.245Z,101273.13
2022-11-03T09:26:18.094Z,101281.19
2022-11-03T09:28:46.203Z,101272.25
2022-11-03T09:31:15.501Z,101266.75
2022-11-03T09:33:43.402Z,101271.34
2022-11-03T09:36:11.568Z,101258.78
2022-11-03T09:38:39.429Z,101276.53
2022-11-03T09:41:18.689Z,101264.59
2022-11-03T09:43:55.614Z,101263.81
2022-11-03T09:46:26.620Z,101259.16
2022-11-03T09:48:55.816Z,101249.66
2022-11-03T09:51:25.499Z,101262.72
2022-11-03T09:53:53.388Z,101269.09
2022-11-03T09:56:24.204Z,101268.00
2022-11-03T09:58:54.457Z,101266.56
2022-11-03T10:01:25.000Z,101265.03
2022-11-03T10:03:53.688Z,101271.34
2022-11-03T10:06:21.646Z,101265.03
2022-11-03T10:08:50.516Z,101265.00
2022-11-03T10:11:18.906Z,101268.00
2022-11-03T10:13:49.429Z,101271.06
2022-11-03T10:16:21.547Z,101276.00
2022-11-03T10:18:51.020Z,101258.75
2022-11-03T10:21:20.680Z,101266.84
2022-11-03T10:23:50.477Z,101269.91
2022-11-03T10:26:20.144Z,101246.59
2022-11-03T10:29:02.544Z,101253.22
2022-11-03T10:31:37.174Z,101263.44
2022-11-03T10:34:24.004Z,101259.50
2022-11-03T10:36:52.213Z,101258.25
2022-11-03T10:39:32.034Z,101224.75
2022-11-03T10:42:01.110Z,101262.44
2022-11-03T10:44:30.995Z,101248.84
2022-11-03T10:47:00.614Z,101244.53
2022-11-03T10:49:31.477Z,101248.75
2022-11-03T10:52:17.319Z,101251.03
2022-11-03T10:54:45.309Z,101247.84
2022-11-03T10:57:13.383Z,101207.56
2022-11-03T10:59:42.549Z,101253.31
2022-11-03T11:02:18.426Z,101200.84
2022-11-03T11:04:50.040Z,101230.28
2022-11-03T11:07:23.332Z,101247.59
2022-11-03T11:09:51.449Z,101245.94
2022-11-03T11:12:22.534Z,101243.38
2022-11-03T11:14:55.746Z,101220.34
2022-11-03T11:17:44.916Z,101243.41
2022-11-03T11:20:36.394Z,101203.22
2022-11-03T11:23:46.759Z,101234.09
2022-11-03T11:26:18.025Z,101241.59
2022-11-03T11:28:47.794Z,101216.50
2022-11-03T11:31:32.581Z,101230.16
2022-11-03T11:34:37.579Z,101229.09
2022-11-03T11:37:36.493Z,101231.91
2022-11-03T11:40:13.035Z,101220.28
2022-11-03T11:43:16.570Z,101219.00
2022-11-03T11:46:21.496Z,101219.34
2022-11-03T11:48:51.424Z,101208.16
2022-11-03T11:51:19.335Z,101207.25
2022-11-03T11:53:58.722Z,101214.97
2022-11-03T11:56:44.173Z,101148.03
2022-11-03T11:59:24.202Z,101196.91
2022-11-03T12:01:54.553Z,101193.31
2022-11-03T12:04:26.325Z,101197.22
2022-11-03T12:06:55.993Z,101192.69
2022-11-03T12:09:28.324Z,101189.97
2022-11-03T12:12:00.837Z,101188.22
2022-11-03T12:14:35.866Z,101141.97
2022-11-03T12:17:34.512Z,101190.97
2022-11-03T12:20:22.591Z,101199.06
2022-11-03T12:22:52.190Z,101189.06
2022-11-03T12:25:40.161Z,101190.25
2022-11-03T12:28:08.663Z,101195.88
2022-11-03T12:30:40.032Z,101184.41
2022-11-03T12:33:08.903Z,101177.22
2022-11-03T12:35:37.169Z,101182.63
2022-11-03T12:38:06.522Z,101192.28
2022-11-03T12:40:34.469Z,101178.03
2022-11-03T12:43:02.461Z,101195.00
2022-11-03T12:45:30.332Z,101185.50
2022-11-03T12:47:58.171Z,101188.75
2022-11-03T12:50:26.195Z,101183.06
2022-11-03T12:52:54.189Z,101191.78
2022-11-03T12:55:23.563Z,101189.88
2022-11-03T12:57:51.611Z,101187.81
2022-11-03T13:00:19.751Z,101145.94
2022-11-03T13:02:47.965Z,101160.88
2022-11-03T13:05:16.142Z,101192.50
2022-11-03T13:07:44.360Z,101167.69
2022-11-03T13:10:12.436Z,101173.63
2022-11-03T13:12:41.840Z,101173.56
2022-11-03T13:15:13.546Z,101170.72
2022-11-03T13:20:29.648Z,101180.72
2022-11-03T13:22:57.574Z,101161.94
2022-11-03T13:25:25.517Z,101170.75
2022-11-03T13:27:55.084Z,101175.81
2022-11-03T13:30:23.391Z,101155.22
2022-11-03T13:32:51.582Z,101176.41
2022-11-03T13:35:19.702Z,101176.13
2022-11-03T13:37:47.924Z,101169.84
2022-11-03T13:40:50.411Z,101173.25
2022-11-03T13:43:06.196Z,101171.38
2022-11-03T13:45:34.353Z,101160.56
2022-11-03T13:50:52.079Z,101166.72
2022-11-03T13:56:11.529Z,101031.34
2022-11-03T14:01:32.788Z,101139.69
2022-11-03T14:06:49.104Z,101147.50
2022-11-03T14:09:17.017Z,101143.06
2022-11-03T14:12:02.590Z,101147.34
2022-11-03T14:14:32.157Z,101142.84
2022-11-03T14:17:00.066Z,101154.88
2022-11-03T14:19:36.543Z,101151.28
2022-11-03T14:22:07.935Z,101152.13
2022-11-03T14:24:35.777Z,101142.38
2022-11-03T14:27:03.612Z,101142.38
2022-11-03T14:29:32.998Z,101144.94
2022-11-03T14:32:00.858Z,101100.09
2022-11-03T14:34:28.765Z,101142.91
2022-11-03T14:36:56.829Z,101148.09
2022-11-03T14:39:24.731Z,101148.00
2022-11-03T14:42:03.506Z,101149.66
2022-11-03T14:44:33.875Z,101145.25
2022-11-03T14:47:02.769Z,101146.94
2022-11-03T14:49:31.476Z,101143.38
2022-11-03T14:51:59.982Z,101151.19
2022-11-03T14:54:27.918Z,101016.88
2022-11-03T14:56:55.945Z,101123.66
2022-11-03T14:59:24.454Z,101133.41
2022-11-03T15:01:54.271Z,101131.63
2022-11-03T15:04:22.990Z,101122.59
2022-11-03T15:06:51.425Z,101134.97
2022-11-03T15:09:19.713Z,101131.25
2022-11-03T15:11:48.029Z,101142.63
2022-11-03T15:14:15.977Z,101140.72
2022-11-03T15:16:46.287Z,101130.13
2022-11-03T15:19:15.526Z,101135.25
2022-11-03T15:21:43.489Z,101135.81
2022-11-03T15:26:59.283Z,101147.91
2022-11-03T15:29:27.163Z,101136.22
2022-11-03T15:31:54.989Z,101148.47
2022-11-03T15:34:24.409Z,101137.72
2022-11-03T15:36:52.246Z,101112.53
2022-11-03T15:39:20.112Z,101147.84
2022-11-03T15:41:47.994Z,101153.91
2022-11-03T15:44:15.769Z,101134.16
2022-11-03T15:46:43.973Z,101098.56
2022-11-03T15:49:11.829Z,101143.81
2022-11-03T15:51:41.048Z,101105.53
2022-11-03T15:54:09.321Z,101119.66
2022-11-03T15:56:37.531Z,101142.50
2022-11-03T15:59:05.368Z,101147.66
2022-11-03T16:01:35.682Z,101138.81
2022-11-03T16:04:05.974Z,101121.28
2022-11-03T16:07:01.641Z,101116.69
2022-11-03T16:09:26.769Z,101147.13
2022-11-03T16:11:54.989Z,101144.56
2022-11-03T16:14:23.020Z,101143.69
2022-11-03T16:16:51.814Z,101120.69
2022-11-03T16:19:20.131Z,101135.72
2022-11-03T16:21:48.053Z,101135.66
2022-11-03T16:24:16.223Z,101133.00
2022-11-03T16:26:45.702Z,101133.00
2022-11-03T16:29:13.582Z,101130.38
2022-11-03T16:31:41.770Z,101123.34
2022-11-03T16:34:10.069Z,101074.44
2022-11-03T16:36:37.908Z,101113.25
2022-11-03T16:39:06.097Z,101119.53
2022-11-03T16:41:34.159Z,101100.09
2022-11-03T16:44:03.697Z,101116.38
2022-11-03T16:46:31.736Z,101113.88
2022-11-03T16:51:27.424Z,101116.44
2022-11-03T16:53:57.278Z,101102.28
2022-11-03T16:56:25.383Z,101119.78
2022-11-03T16:58:53.227Z,101112.63
2022-11-03T17:01:22.884Z,101109.06
2022-11-03T17:03:52.408Z,101092.03
2022-11-03T17:06:20.253Z,101094.94
2022-11-03T17:08:53.209Z,101093.16
2022-11-03T17:11:36.081Z,101046.91
2022-11-03T17:14:06.293Z,101071.97
2022-11-03T17:16:36.069Z,101100.31
2022-11-03T17:19:04.332Z,101088.63
2022-11-03T17:21:32.543Z,101091.47
2022-11-03T17:24:00.420Z,101098.44
2022-11-03T17:26:42.909Z,101105.38
2022-11-03T17:29:16.439Z,101106.28
2022-11-03T17:31:45.947Z,101099.16
2022-11-03T17:34:14.026Z,101107.28
2022-11-03T17:36:42.000Z,101109.84
2022-11-03T17:39:15.793Z,101100.81
2022-11-03T17:41:44.015Z,101096.47
2022-11-03T17:44:13.159Z,101109.78
2022-11-03T17:46:41.257Z,101101.94
2022-11-03T17:49:10.746Z,101105.38
2022-11-03T17:51:43.244Z,101087.56
2022-11-03T17:54:17.245Z,101112.28
2022-11-03T17:56:45.373Z,101111.28
2022-11-03T17:59:16.585Z,101109.56
2022-11-03T18:01:45.430Z,101114.72
2022-11-03T18:04:16.293Z,101113.00
2022-11-03T18:06:45.499Z,101114.78
2022-11-03T18:09:13.387Z,101114.72
2022-11-03T18:12:01.597Z,101079.91
2022-11-03T18:14:30.576Z,101077.47
2022-11-03T18:16:59.108Z,101115.75
2022-11-03T18:19:31.995Z,101106.88
2022-11-03T18:22:00.163Z,101093.50
2022-11-03T18:24:28.630Z,101111.50
2022-11-03T18:26:56.468Z,101089.06
2022-11-03T18:29:24.452Z,101116.91
2022-11-03T18:31:52.399Z,101120.44
2022-11-03T18:34:24.228Z,101114.97
2022-11-03T18:36:54.486Z,101123.94
2022-11-03T18:39:24.395Z,101119.53
2022-11-03T18:41:52.515Z,101112.16
2022-11-03T18:44:22.740Z,101115.84
2022-11-03T18:46:52.359Z,101114.72
2022-11-03T18:49:20.892Z,101112.94
2022-11-03T18:51:50.584Z,101069.34
2022-11-03T18:54:22.458Z,101125.50
2022-11-03T18:56:53.105Z,101121.97
2022-11-03T18:59:37.180Z,101113.97
2022-11-03T19:02:16.201Z,101118.53
2022-11-03T19:04:44.184Z,101120.25
2022-11-03T19:07:13.935Z,101086.38
2022-11-03T19:09:44.391Z,101058.69
2022-11-03T19:12:15.587Z,101122.03
2022-11-03T19:14:46.119Z,101110.63
2022-11-03T19:17:22.878Z,101062.38
2022-11-03T19:19:52.897Z,101107.06
2022-11-03T19:22:22.794Z,101110.44
2022-11-03T19:24:52.007Z,101108.56
2022-11-03T19:27:25.945Z,101113.84
2022-11-03T19:29:55.297Z,101119.91
2022-11-03T19:32:27.716Z,101013.44
2022-11-03T19:34:58.308Z,101106.41
2022-11-03T19:37:31.012Z,101118.72
2022-11-03T19:40:06.069Z,101117.06
2022-11-03T19:42:36.690Z,101114.50
2022-11-03T19:45:07.261Z,101115.50
2022-11-03T19:47:39.714Z,101104.31
2022-11-03T19:50:18.499Z,101104.38
2022-11-03T19:52:46.709Z,101108.25
2022-11-03T19:55:16.789Z,101108.47
2022-11-03T19:57:44.972Z,101012.47
2022-11-03T20:00:17.499Z,101105.31
2022-11-03T20:02:45.897Z,101090.47
2022-11-03T20:05:14.449Z,101090.59
2022-11-03T20:07:44.376Z,101103.41
2022-11-03T20:10:18.470Z,101108.88
2022-11-03T20:12:47.231Z,101107.25
2022-11-03T20:15:17.542Z,101087.63
2022-11-03T20:17:46.083Z,101103.00
2022-11-03T20:20:16.597Z,101093.25
2022-11-03T20:22:47.614Z,101108.41
2022-11-03T20:25:22.441Z,101104.94
2022-11-03T20:27:51.477Z,101059.53
2022-11-03T20:30:21.247Z,101100.72
2022-11-03T20:32:50.133Z,101107.72
2022-11-03T20:35:23.123Z,101102.44
2022-11-03T20:37:59.565Z,101105.00
2022-11-03T20:40:32.901Z,101108.28
2022-11-03T20:43:03.446Z,101105.50
2022-11-03T20:45:33.023Z,101096.66
2022-11-03T20:48:00.937Z,101068.00
2022-11-03T20:50:32.516Z,101101.72
2022-11-03T20:53:00.555Z,101106.03
2022-11-03T20:55:30.306Z,101107.69
2022-11-03T20:57:59.610Z,101063.09
2022-11-03T21:00:28.376Z,101103.25
2022-11-03T21:02:57.486Z,101101.41
2022-11-03T21:05:27.240Z,101108.38
2022-11-03T21:07:56.220Z,101059.25
2022-11-03T21:10:25.251Z,101079.56
2022-11-03T21:12:55.205Z,101112.47
2022-11-03T21:15:57.741Z,101101.06
2022-11-03T21:18:48.392Z,101101.78
2022-11-03T21:21:20.957Z,101101.63
2022-11-03T21:23:49.307Z,101106.69
2022-11-03T21:26:17.249Z,101105.72
2022-11-03T21:28:48.818Z,101105.69
2022-11-03T21:31:17.008Z,101032.66
2022-11-03T21:33:44.867Z,101103.84
2022-11-03T21:36:13.056Z,100809.41
2022-11-03T21:38:41.072Z,101033.38
2022-11-03T21:41:26.564Z,101032.53
2022-11-03T21:44:13.829Z,101080.66
2022-11-03T21:46:42.923Z,101050.25
2022-11-03T21:49:29.001Z,101089.47
2022-11-03T21:51:56.844Z,101103.59
2022-11-03T21:54:24.910Z,101039.50
2022-11-03T21:56:52.722Z,101092.91
2022-11-03T21:59:22.002Z,101092.78
2022-11-03T22:01:53.164Z,101067.56
2022-11-03T22:04:21.471Z,100996.31
2022-11-03T22:06:50.494Z,101061.31
2022-11-03T22:09:18.956Z,101086.16
2022-11-03T22:11:47.779Z,101110.16
2022-11-03T22:14:16.011Z,101094.34
2022-11-03T22:16:44.800Z,101094.28
2022-11-03T22:19:32.327Z,101096.00
2022-11-03T22:22:19.134Z,101094.16
2022-11-03T22:25:04.386Z,101093.34
2022-11-03T22:27:33.686Z,100925.88
2022-11-03T22:30:19.948Z,101080.63
2022-11-03T22:32:53.651Z,101090.44
2022-11-03T22:35:40.255Z,101073.50
2022-11-03T22:38:10.745Z,101092.09
2022-11-03T22:40:57.426Z,101091.19
2022-11-03T22:43:43.562Z,101098.34
2022-11-03T22:46:12.761Z,101082.28
2022-11-03T22:48:42.455Z,101095.66
2022-11-03T22:51:13.210Z,101074.44
2022-11-03T22:53:59.255Z,101098.44
2022-11-03T22:56:29.155Z,101090.44
2022-11-03T22:58:57.604Z,101094.22
2022-11-03T23:01:27.800Z,101106.47
2022-11-03T23:03:57.761Z,101101.25
2022-11-03T23:06:27.821Z,101100.34
2022-11-03T23:08:56.861Z,101096.91
2022-11-03T23:11:25.927Z,101103.16
2022-11-03T23:13:56.491Z,101092.50
2022-11-03T23:16:26.132Z,101103.91
2022-11-03T23:19:12.261Z,101087.75
2022-11-03T23:21:41.906Z,101092.44
2022-11-03T23:24:27.320Z,101102.03
2022-11-03T23:26:55.262Z,101045.81
2022-11-03T23:29:23.199Z,101082.34
2022-11-03T23:31:51.084Z,101101.00
2022-11-03T23:34:19.187Z,101101.91
2022-11-03T23:36:48.695Z,101100.19
2022-11-03T23:39:18.650Z,101073.25
2022-11-03T23:41:46.884Z,101105.16
2022-11-03T23:44:16.400Z,101099.81
2022-11-03T23:47:02.889Z,101072.38
2022-11-03T23:49:31.140Z,101094.66
2022-11-03T23:52:00.719Z,101105.88
2022-11-03T23:54:28.903Z,101085.56
2022-11-03T23:57:14.613Z,101099.75
2022-11-03T23:59:42.783Z,101105.06
